sensor_id;sensor_type;location;lat;lon;timestamp;pressure;altitude;pressure_sealevel;temperature;humidity
10064;BME280;5071;52.360;13.134;2024-02-21T00:04:59;100951.50;;;6.86;100.00
10064;BME280;5071;52.360;13.134;2024-02-21T00:10:23;100932.19;;;6.90;100.00
10064;BME280;5071;52.360;13.134;2024-02-21T00:15:43;100930.41;;;6.86;100.00
10064;BME280;5071;52.360;13.134;2024-02-21T00:21:04;100929.56;;;6.92;100.00
10064;BME280;5071;52.360;13.134;2024-02-21T00:26:26;100933.09;;;6.97;100.00
10064;BME280;5071;52.360;13.134;2024-02-21T00:31:49;100922.53;;;7.00;100.00
10064;BME280;5071;52.360;13.134;2024-02-21T00:37:10;100919.94;;;7.05;100.00
10064;BME280;5071;52.360;13.134;2024-02-21T00:42:31;100917.34;;;7.08;100.00
10064;BME280;5071;52.360;13.134;2024-02-21T00:47:52;100904.09;;;7.01;100.00
10064;BME280;5071;52.360;13.134;2024-02-21T00:53:13;100910.25;;;7.04;100.00
10064;BME280;5071;52.360;13.134;2024-02-21T00:58:35;100903.22;;;7.07;100.00
10064;BME280;5071;52.360;13.134;2024-02-21T01:03:55;100895.31;;;7.07;100.00
10064;BME280;5071;52.360;13.134;2024-02-21T01:09:16;100894.44;;;7.05;99.96
10064;BME280;5071;52.360;13.134;2024-02-21T01:14:38;100888.28;;;7.06;100.00
10064;BME280;5071;52.360;13.134;2024-02-21T01:19:58;100888.31;;;7.08;99.35
10064;BME280;5071;52.360;13.134;2024-02-21T01:25:19;100882.16;;;7.13;99.54
10064;BME280;5071;52.360;13.134;2024-02-21T01:30:41;100872.47;;;7.14;99.08
10064;BME280;5071;52.360;13.134;2024-02-21T01:36:03;100868.97;;;7.12;100.00
10064;BME280;5071;52.360;13.134;2024-02-21T01:41:24;100872.47;;;7.14;100.00
10064;BME280;5071;52.360;13.134;2024-02-21T01:46:47;100861.91;;;7.14;100.00
10064;BME280;5071;52.360;13.134;2024-02-21T01:52:07;100862.81;;;7.16;100.00
10064;BME280;5071;52.360;13.134;2024-02-21T01:57:29;100857.47;;;7.00;100.00
10064;BME280;5071;52.360;13.134;2024-02-21T02:02:51;100860.06;;;6.94;100.00
10064;BME280;5071;52.360;13.134;2024-02-21T02:08:12;100846.88;;;6.96;100.00
10064;BME280;5071;52.360;13.134;2024-02-21T02:13:32;100837.16;;;6.84;100.00
10064;BME280;5071;52.360;13.134;2024-02-21T02:18:54;100832.75;;;6.80;100.00
10064;BME280;5071;52.360;13.134;2024-02-21T02:24:17;100830.09;;;6.77;100.00
10064;BME280;5071;52.360;13.134;2024-02-21T02:29:38;100828.31;;;6.67;100.00
10064;BME280;5071;52.360;13.134;2024-02-21T02:34:58;100817.75;;;6.67;100.00
10064;BME280;5071;52.360;13.134;2024-02-21T02:40:20;100821.25;;;6.66;100.00
10064;BME280;5071;52.360;13.134;2024-02-21T02:45:42;100819.44;;;6.58;100.00
10064;BME280;5071;52.360;13.134;2024-02-21T02:51:02;100802.75;;;6.58;100.00
10064;BME280;5071;52.360;13.134;2024-02-21T02:56:24;100804.50;;;6.54;100.00
10064;BME280;5071;52.360;13.134;2024-02-21T03:01:45;100794.81;;;6.50;100.00
10064;BME280;5071;52.360;13.134;2024-02-21T03:07:06;100796.56;;;6.48;100.00
10064;BME280;5071;52.360;13.134;2024-02-21T03:12:28;100786.00;;;6.42;100.00
10064;BME280;5071;52.360;13.134;2024-02-21T03:17:49;100772.75;;;6.36;100.00
10064;BME280;5071;52.360;13.134;2024-02-21T03:23:10;100771.88;;;6.34;100.00
10064;BME280;5071;52.360;13.134;2024-02-21T03:28:32;100772.72;;;6.28;100.00
10064;BME280;5071;52.360;13.134;2024-02-21T03:33:53;100763.91;;;6.26;100.00
10064;BME280;5071;52.360;13.134;2024-02-21T03:39:16;100763.91;;;6.25;100.00
10064;BME280;5071;52.360;13.134;2024-02-21T03:44:38;100757.78;;;6.26;100.00
10064;BME280;5071;52.360;13.134;2024-02-21T03:49:59;100746.34;;;6.22;100.00
10064;BME280;5071;52.360;13.134;2024-02-21T03:55:19;100739.31;;;6.19;100.00
10064;BME280;5071;52.360;13.134;2024-02-21T04:00:41;100740.19;;;6.25;100.00
10064;BME280;5071;52.360;13.134;2024-02-21T04:06:03;100734.91;;;6.25;100.00
10064;BME280;5071;52.360;13.134;2024-02-21T04:11:24;100717.34;;;6.23;100.00
10064;BME280;5071;52.360;13.134;2024-02-21T04:16:46;100716.47;;;6.26;100.00
10064;BME280;5071;52.360;13.134;2024-02-21T04:22:07;100696.25;;;6.27;100.00
10064;BME280;5071;52.360;13.134;2024-02-21T04:27:27;100684.84;;;6.28;100.00
10064;BME280;5071;52.360;13.134;2024-02-21T04:32:50;100672.59;;;6.33;100.00
10064;BME280;5071;52.360;13.134;2024-02-21T04:38:10;100656.75;;;6.25;100.00
10064;BME280;5071;52.360;13.134;2024-02-21T04:43:30;100648.81;;;6.20;100.00
10064;BME280;5071;52.360;13.134;2024-02-21T04:48:53;100632.09;;;6.18;100.00
10064;BME280;5071;52.360;13.134;2024-02-21T04:54:13;100634.75;;;6.18;100.00
10064;BME280;5071;52.360;13.134;2024-02-21T04:59:34;100626.84;;;6.25;100.00
10064;BME280;5071;52.360;13.134;2024-02-21T05:04:56;100627.72;;;6.20;100.00
10064;BME280;5071;52.360;13.134;2024-02-21T05:10:17;100622.47;;;6.23;100.00
10064;BME280;5071;52.360;13.134;2024-02-21T05:15:37;100625.97;;;6.22;100.00
10064;BME280;5071;52.360;13.134;2024-02-21T05:21:01;100625.97;;;6.22;100.00
10064;BME280;5071;52.360;13.134;2024-02-21T05:26:22;100631.25;;;6.26;100.00
10064;BME280;5071;52.360;13.134;2024-02-21T05:31:55;100625.13;;;6.31;100.00
10064;BME280;5071;52.360;13.134;2024-02-21T05:37:18;100639.22;;;6.36;100.00
10064;BME280;5071;52.360;13.134;2024-02-21T05:42:39;100634.78;;;6.35;100.00
10064;BME280;5071;52.360;13.134;2024-02-21T05:48:00;100630.41;;;6.39;100.00
10064;BME280;5071;52.360;13.134;2024-02-21T05:53:22;100623.38;;;6.39;100.00
10064;BME280;5071;52.360;13.134;2024-02-21T05:58:43;100618.13;;;6.41;100.00
10064;BME280;5071;52.360;13.134;2024-02-21T06:04:03;100625.16;;;6.45;100.00
10064;BME280;5071;52.360;13.134;2024-02-21T06:09:25;100626.06;;;6.50;100.00
10064;BME280;5071;52.360;13.134;2024-02-21T06:14:46;100633.06;;;6.51;100.00
10064;BME280;5071;52.360;13.134;2024-02-21T06:20:08;100617.25;;;6.54;100.00
10064;BME280;5071;52.360;13.134;2024-02-21T06:25:30;100605.81;;;6.51;100.00
10064;BME280;5071;52.360;13.134;2024-02-21T06:30:51;100602.31;;;6.52;100.00
10064;BME280;5071;52.360;13.134;2024-02-21T06:36:12;100613.75;;;6.55;100.00
10064;BME280;5071;52.360;13.134;2024-02-21T06:41:34;100612.00;;;6.57;100.00
10064;BME280;5071;52.360;13.134;2024-02-21T06:46:54;100618.16;;;6.56;100.00
10064;BME280;5071;52.360;13.134;2024-02-21T06:52:15;100619.03;;;6.58;100.00
10064;BME280;5071;52.360;13.134;2024-02-21T06:57:37;100614.66;;;6.57;100.00
10064;BME280;5071;52.360;13.134;2024-02-21T07:02:57;100606.72;;;6.64;100.00
10064;BME280;5071;52.360;13.134;2024-02-21T07:08:18;100608.50;;;6.65;100.00
10064;BME280;5071;52.360;13.134;2024-02-21T07:13:40;100617.28;;;6.70;100.00
10064;BME280;5071;52.360;13.134;2024-02-21T07:19:01;100609.41;;;6.76;100.00
10064;BME280;5071;52.360;13.134;2024-02-21T07:24:25;100606.75;;;6.77;100.00
10064;BME280;5071;52.360;13.134;2024-02-21T07:29:46;100603.22;;;6.77;100.00
10064;BME280;5071;52.360;13.134;2024-02-21T07:35:08;100609.41;;;6.84;100.00
10064;BME280;5071;52.360;13.134;2024-02-21T07:40:28;100604.09;;;6.87;100.00
10064;BME280;5071;52.360;13.134;2024-02-21T07:45:50;100608.50;;;6.94;100.00
10064;BME280;5071;52.360;13.134;2024-02-21T07:51:11;100603.25;;;6.95;100.00
10064;BME280;5071;52.360;13.134;2024-02-21T07:56:32;100597.09;;;7.04;100.00
10064;BME280;5071;52.360;13.134;2024-02-21T08:01:57;100603.22;;;7.17;100.00
10064;BME280;5071;52.360;13.134;2024-02-21T08:07:18;100599.72;;;7.18;100.00
10064;BME280;5071;52.360;13.134;2024-02-21T08:12:39;100590.03;;;7.32;100.00
10064;BME280;5071;52.360;13.134;2024-02-21T08:18:02;100589.13;;;7.33;100.00
10064;BME280;5071;52.360;13.134;2024-02-21T08:23:23;100587.34;;;7.57;100.00
10064;BME280;5071;52.360;13.134;2024-02-21T08:28:44;100591.72;;;7.61;100.00
10064;BME280;5071;52.360;13.134;2024-02-21T08:34:06;100582.03;;;7.66;100.00
10064;BME280;5071;52.360;13.134;2024-02-21T08:39:29;100577.59;;;7.77;100.00
10064;BME280;5071;52.360;13.134;2024-02-21T08:44:49;100580.19;;;7.81;100.00
10064;BME280;5071;52.360;13.134;2024-02-21T08:50:12;100587.97;;;8.16;100.00
10064;BME280;5071;52.360;13.134;2024-02-21T08:55:47;100586.78;;;8.72;100.00
10064;BME280;5071;52.360;13.134;2024-02-21T09:01:08;100586.81;;;8.71;100.00
10064;BME280;5071;52.360;13.134;2024-02-21T09:06:30;100587.75;;;8.65;100.00
10064;BME280;5071;52.360;13.134;2024-02-21T09:11:51;100583.25;;;8.73;100.00
10064;BME280;5071;52.360;13.134;2024-02-21T09:17:11;100571.88;;;8.61;100.00
10064;BME280;5071;52.360;13.134;2024-02-21T09:22:34;100570.91;;;8.74;99.66
10064;BME280;5071;52.360;13.134;2024-02-21T09:27:55;100572.63;;;8.81;99.91
10064;BME280;5071;52.360;13.134;2024-02-21T09:33:16;100565.31;;;9.08;98.08
10064;BME280;5071;52.360;13.134;2024-02-21T09:38:52;100572.25;;;9.24;97.83
10064;BME280;5071;52.360;13.134;2024-02-21T09:44:13;100563.59;;;9.05;97.43
10064;BME280;5071;52.360;13.134;2024-02-21T09:49:35;100566.59;;;9.58;96.68
10064;BME280;5071;52.360;13.134;2024-02-21T09:54:58;100566.47;;;9.69;94.90
10064;BME280;5071;52.360;13.134;2024-02-21T10:00:19;100556.00;;;9.58;94.81
10064;BME280;5071;52.360;13.134;2024-02-21T10:05:47;100559.59;;;9.51;93.77
10064;BME280;5071;52.360;13.134;2024-02-21T10:11:09;100557.84;;;9.50;93.64
10064;BME280;5071;52.360;13.134;2024-02-21T10:16:30;100562.34;;;9.42;93.91
10064;BME280;5071;52.360;13.134;2024-02-21T10:22:01;100572.84;;;9.49;93.77
10064;BME280;5071;52.360;13.134;2024-02-21T10:27:23;100566.59;;;9.58;93.13
10064;BME280;5071;52.360;13.134;2024-02-21T10:32:51;100571.88;;;9.61;93.31
10064;BME280;5071;52.360;13.134;2024-02-21T10:38:12;100564.59;;;9.79;91.20
10064;BME280;5071;52.360;13.134;2024-02-21T10:43:40;100560.97;;;9.86;91.77
10064;BME280;5071;52.360;13.134;2024-02-21T10:49:06;100549.50;;;9.84;92.04
10064;BME280;5071;52.360;13.134;2024-02-21T10:54:39;100554.56;;;10.66;89.91
10064;BME280;5071;52.360;13.134;2024-02-21T11:00:04;100552.97;;;10.56;87.62
10064;BME280;5071;52.360;13.134;2024-02-21T11:05:26;100538.59;;;10.69;87.88
10064;BME280;5071;52.360;13.134;2024-02-21T11:10:48;100519.13;;;10.70;89.06
10064;BME280;5071;52.360;13.134;2024-02-21T11:16:20;100514.03;;;11.54;84.06
10064;BME280;5071;52.360;13.134;2024-02-21T11:21:41;100514.31;;;10.92;85.90
10064;BME280;5071;52.360;13.134;2024-02-21T11:27:08;100491.63;;;11.22;85.62
10064;BME280;5071;52.360;13.134;2024-02-21T11:32:31;100476.25;;;11.38;82.00
10064;BME280;5071;52.360;13.134;2024-02-21T11:37:52;100461.06;;;11.45;81.96
10064;BME280;5071;52.360;13.134;2024-02-21T11:43:12;100444.00;;;11.57;82.93
10064;BME280;5071;52.360;13.134;2024-02-21T11:48:35;100434.53;;;11.84;80.44
10064;BME280;5071;52.360;13.134;2024-02-21T11:53:58;100425.25;;;12.41;80.60
10064;BME280;5071;52.360;13.134;2024-02-21T11:59:22;100432.41;;;11.59;79.35
10064;BME280;5071;52.360;13.134;2024-02-21T12:04:43;100422.56;;;11.64;82.21
10064;BME280;5071;52.360;13.134;2024-02-21T12:10:07;100412.22;;;11.07;83.30
10064;BME280;5071;52.360;13.134;2024-02-21T12:15:28;100394.38;;;11.15;82.66
10064;BME280;5071;52.360;13.134;2024-02-21T12:20:50;100395.63;;;10.96;84.36
10064;BME280;5071;52.360;13.134;2024-02-21T12:26:12;100386.03;;;10.88;84.15
10064;BME280;5071;52.360;13.134;2024-02-21T12:31:33;100377.03;;;10.96;84.04
10064;BME280;5071;52.360;13.134;2024-02-21T12:36:55;100369.88;;;10.99;82.85
10064;BME280;5071;52.360;13.134;2024-02-21T12:42:15;100360.44;;;10.84;84.24
10064;BME280;5071;52.360;13.134;2024-02-21T12:47:37;100361.59;;;11.15;82.33
10064;BME280;5071;52.360;13.134;2024-02-21T12:52:59;100349.94;;;11.22;82.82
10064;BME280;5071;52.360;13.134;2024-02-21T12:58:19;100347.88;;;11.36;83.00
10064;BME280;5071;52.360;13.134;2024-02-21T13:03:40;100354.88;;;11.39;81.68
10064;BME280;5071;52.360;13.134;2024-02-21T13:09:02;100330.09;;;12.15;79.69
10064;BME280;5071;52.360;13.134;2024-02-21T13:14:24;100327.31;;;12.54;77.37
10064;BME280;5071;52.360;13.134;2024-02-21T13:19:44;100313.56;;;12.36;76.96
10064;BME280;5071;52.360;13.134;2024-02-21T13:25:07;100310.22;;;11.94;77.35
10064;BME280;5071;52.360;13.134;2024-02-21T13:30:28;100298.06;;;11.82;76.81
10064;BME280;5071;52.360;13.134;2024-02-21T13:35:49;100294.69;;;11.75;78.63
10064;BME280;5071;52.360;13.134;2024-02-21T13:41:10;100286.97;;;11.64;78.70
10064;BME280;5071;52.360;13.134;2024-02-21T13:46:31;100289.69;;;11.61;78.65
10064;BME280;5071;52.360;13.134;2024-02-21T13:51:52;100279.22;;;11.55;79.78
10064;BME280;5071;52.360;13.134;2024-02-21T13:57:14;100283.41;;;11.28;80.54
10064;BME280;5071;52.360;13.134;2024-02-21T14:02:34;100273.63;;;11.28;82.33
10064;BME280;5071;52.360;13.134;2024-02-21T14:07:55;100278.59;;;11.03;80.99
10064;BME280;5071;52.360;13.134;2024-02-21T14:13:17;100275.25;;;10.95;81.40
10064;BME280;5071;52.360;13.134;2024-02-21T14:18:37;100266.88;;;11.15;80.09
10064;BME280;5071;52.360;13.134;2024-02-21T14:23:58;100257.19;;;11.11;81.92
10064;BME280;5071;52.360;13.134;2024-02-21T14:29:20;100260.41;;;11.25;80.77
10064;BME280;5071;52.360;13.134;2024-02-21T14:34:41;100261.19;;;11.31;80.34
10064;BME280;5071;52.360;13.134;2024-02-21T14:40:02;100258.06;;;11.13;81.23
10064;BME280;5071;52.360;13.134;2024-02-21T14:45:23;100254.00;;;10.95;80.94
10064;BME280;5071;52.360;13.134;2024-02-21T14:50:44;100247.88;;;10.92;81.15
10064;BME280;5071;52.360;13.134;2024-02-21T14:56:05;100236.47;;;10.86;81.01
10064;BME280;5071;52.360;13.134;2024-02-21T15:01:27;100223.16;;;10.89;81.72
10064;BME280;5071;52.360;13.134;2024-02-21T15:06:48;100215.00;;;10.97;80.02
10064;BME280;5071;52.360;13.134;2024-02-21T15:12:08;100200.03;;;10.95;79.92
10064;BME280;5071;52.360;13.134;2024-02-21T15:17:30;100191.56;;;10.77;81.81
10064;BME280;5071;52.360;13.134;2024-02-21T15:22:51;100176.09;;;10.56;83.51
10064;BME280;5071;52.360;13.134;2024-02-21T15:28:12;100163.53;;;10.22;83.32
10064;BME280;5071;52.360;13.134;2024-02-21T15:33:34;100151.56;;;10.01;84.01
10064;BME280;5071;52.360;13.134;2024-02-21T15:38:59;100133.22;;;9.90;85.03
10064;BME280;5071;52.360;13.134;2024-02-21T15:44:19;100123.59;;;9.84;85.62
10064;BME280;5071;52.360;13.134;2024-02-21T15:49:41;100115.09;;;9.67;86.90
10064;BME280;5071;52.360;13.134;2024-02-21T15:55:02;100103.84;;;9.54;85.74
10064;BME280;5071;52.360;13.134;2024-02-21T16:00:28;100100.53;;;9.43;85.71
10064;BME280;5071;52.360;13.134;2024-02-21T16:05:50;100091.97;;;9.27;85.86
10064;BME280;5071;52.360;13.134;2024-02-21T16:11:13;100096.66;;;9.11;85.96
10064;BME280;5071;52.360;13.134;2024-02-21T16:16:34;100095.19;;;8.93;87.26
10064;BME280;5071;52.360;13.134;2024-02-21T16:21:56;100082.06;;;8.87;86.37
10064;BME280;5071;52.360;13.134;2024-02-21T16:27:20;100083.19;;;8.69;87.51
10064;BME280;5071;52.360;13.134;2024-02-21T16:32:42;100091.25;;;8.63;87.37
10064;BME280;5071;52.360;13.134;2024-02-21T16:38:04;100080.75;;;8.56;87.85
10064;BME280;5071;52.360;13.134;2024-02-21T16:43:25;100077.47;;;8.39;88.54
10064;BME280;5071;52.360;13.134;2024-02-21T16:48:46;100072.34;;;8.27;88.90
10064;BME280;5071;52.360;13.134;2024-02-21T16:54:08;100076.03;;;8.13;89.58
10064;BME280;5071;52.360;13.134;2024-02-21T16:59:28;100080.63;;;7.97;91.26
10064;BME280;5071;52.360;13.134;2024-02-21T17:04:49;100072.03;;;7.80;91.81
10064;BME280;5071;52.360;13.134;2024-02-21T17:10:11;100057.31;;;7.62;92.44
10064;BME280;5071;52.360;13.134;2024-02-21T17:15:32;100046.88;;;7.47;94.14
10064;BME280;5071;52.360;13.134;2024-02-21T17:20:52;100032.88;;;7.42;94.36
10064;BME280;5071;52.360;13.134;2024-02-21T17:26:14;100021.41;;;7.44;94.88
10064;BME280;5071;52.360;13.134;2024-02-21T17:31:35;100003.19;;;7.18;97.05
10064;BME280;5071;52.360;13.134;2024-02-21T17:36:56;99990.84;;;7.20;96.07
10064;BME280;5071;52.360;13.134;2024-02-21T17:42:18;99993.59;;;7.11;96.32
10064;BME280;5071;52.360;13.134;2024-02-21T17:47:39;99987.59;;;6.95;98.28
10064;BME280;5071;52.360;13.134;2024-02-21T17:52:59;99985.84;;;6.92;97.87
10064;BME280;5071;52.360;13.134;2024-02-21T17:58:22;99986.72;;;6.94;98.83
10064;BME280;5071;52.360;13.134;2024-02-21T18:03:44;99964.97;;;6.71;100.00
10064;BME280;5071;52.360;13.134;2024-02-21T18:09:07;99955.22;;;6.77;100.00
10064;BME280;5071;52.360;13.134;2024-02-21T18:14:29;99940.22;;;6.84;100.00
10064;BME280;5071;52.360;13.134;2024-02-21T18:19:50;99935.81;;;6.83;100.00
10064;BME280;5071;52.360;13.134;2024-02-21T18:25:14;99913.00;;;6.80;100.00
10064;BME280;5071;52.360;13.134;2024-02-21T18:30:50;99899.72;;;6.88;100.00
10064;BME280;5071;52.360;13.134;2024-02-21T18:36:14;99883.88;;;6.91;100.00
10064;BME280;5071;52.360;13.134;2024-02-21T18:41:34;99874.25;;;6.87;100.00
10064;BME280;5071;52.360;13.134;2024-02-21T18:46:56;99854.81;;;6.94;100.00
10064;BME280;5071;52.360;13.134;2024-02-21T18:52:18;99838.00;;;7.01;100.00
10064;BME280;5071;52.360;13.134;2024-02-21T18:57:39;99823.75;;;7.16;100.00
10064;BME280;5071;52.360;13.134;2024-02-21T19:03:01;99804.41;;;7.16;100.00
10064;BME280;5071;52.360;13.134;2024-02-21T19:08:22;99804.28;;;7.25;100.00
10064;BME280;5071;52.360;13.134;2024-02-21T19:13:42;99807.88;;;7.21;100.00
10064;BME280;5071;52.360;13.134;2024-02-21T19:19:04;99823.63;;;7.27;100.00
10064;BME280;5071;52.360;13.134;2024-02-21T19:24:25;99799.13;;;7.16;100.00
10064;BME280;5071;52.360;13.134;2024-02-21T19:29:45;99776.31;;;7.12;100.00
10064;BME280;5071;52.360;13.134;2024-02-21T19:35:08;99767.50;;;7.13;100.00
10064;BME280;5071;52.360;13.134;2024-02-21T19:40:29;99757.78;;;7.15;100.00
10064;BME280;5071;52.360;13.134;2024-02-21T19:45:50;99760.50;;;7.12;100.00
10064;BME280;5071;52.360;13.134;2024-02-21T19:51:12;99778.16;;;7.07;100.00
10064;BME280;5071;52.360;13.134;2024-02-21T19:56:32;99761.66;;;6.91;100.00
10064;BME280;5071;52.360;13.134;2024-02-21T20:01:54;99748.53;;;6.86;100.00
10064;BME280;5071;52.360;13.134;2024-02-21T20:07:15;99729.13;;;6.90;100.00
10064;BME280;5071;52.360;13.134;2024-02-21T20:12:36;99712.38;;;6.93;100.00
10064;BME280;5071;52.360;13.134;2024-02-21T20:17:57;99698.19;;;7.01;100.00
10064;BME280;5071;52.360;13.134;2024-02-21T20:23:19;99686.69;;;7.06;100.00
10064;BME280;5071;52.360;13.134;2024-02-21T20:28:40;99682.28;;;7.08;100.00
10064;BME280;5071;52.360;13.134;2024-02-21T20:34:00;99668.22;;;7.06;100.00
10064;BME280;5071;52.360;13.134;2024-02-21T20:39:25;99653.28;;;7.05;100.00
10064;BME280;5071;52.360;13.134;2024-02-21T20:44:46;99645.38;;;7.05;99.82
10064;BME280;5071;52.360;13.134;2024-02-21T20:50:07;99640.00;;;7.11;98.94
10064;BME280;5071;52.360;13.134;2024-02-21T20:55:29;99637.41;;;7.08;98.71
10064;BME280;5071;52.360;13.134;2024-02-21T21:00:50;99637.34;;;7.11;97.83
10064;BME280;5071;52.360;13.134;2024-02-21T21:06:10;99639.88;;;7.17;97.15
10064;BME280;5071;52.360;13.134;2024-02-21T21:11:32;99632.84;;;7.17;96.38
10064;BME280;5071;52.360;13.134;2024-02-21T21:17:06;99634.56;;;7.20;96.13
10064;BME280;5071;52.360;13.134;2024-02-21T21:22:26;99631.56;;;7.42;93.83
10064;BME280;5071;52.360;13.134;2024-02-21T21:27:48;99630.47;;;7.53;92.49
10064;BME280;5071;52.360;13.134;2024-02-21T21:33:09;99619.78;;;7.59;90.91
10064;BME280;5071;52.360;13.134;2024-02-21T21:38:30;99619.97;;;7.50;93.27
10064;BME280;5071;52.360;13.134;2024-02-21T21:43:52;99615.50;;;7.54;92.51
10064;BME280;5071;52.360;13.134;2024-02-21T21:49:13;99601.13;;;7.70;89.69
10064;BME280;5071;52.360;13.134;2024-02-21T21:54:33;99597.50;;;7.74;89.59
10064;BME280;5071;52.360;13.134;2024-02-21T21:59:55;99590.19;;;7.89;87.63
10064;BME280;5071;52.360;13.134;2024-02-21T22:04:57;99584.53;;;8.07;86.19
10064;BME280;5071;52.360;13.134;2024-02-21T22:09:59;99580.25;;;8.02;86.51
10064;BME280;5071;52.360;13.134;2024-02-21T22:15:03;99573.97;;;8.07;85.32
10064;BME280;5071;52.360;13.134;2024-02-21T22:20:06;99556.69;;;7.91;86.81
10064;BME280;5071;52.360;13.134;2024-02-21T22:25:08;99550.41;;;7.96;86.69
10064;BME280;5071;52.360;13.134;2024-02-21T22:30:12;99537.34;;;7.89;86.66
10064;BME280;5071;52.360;13.134;2024-02-21T22:35:14;99538.91;;;7.97;85.81
10064;BME280;5071;52.360;13.134;2024-02-21T22:40:16;99523.94;;;7.98;86.33
10064;BME280;5071;52.360;13.134;2024-02-21T22:45:19;99507.47;;;7.87;86.44
10064;BME280;5071;52.360;13.134;2024-02-21T22:50:21;99506.28;;;8.00;86.56
10064;BME280;5071;52.360;13.134;2024-02-21T22:55:24;99486.03;;;7.99;84.28
10064;BME280;5071;52.360;13.134;2024-02-21T23:00:27;99484.13;;;8.07;84.77
10064;BME280;5071;52.360;13.134;2024-02-21T23:05:29;99465.09;;;7.90;85.58
10064;BME280;5071;52.360;13.134;2024-02-21T23:10:31;99462.88;;;8.10;83.48
10064;BME280;5071;52.360;13.134;2024-02-21T23:15:35;99453.22;;;8.09;83.13
10064;BME280;5071;52.360;13.134;2024-02-21T23:20:37;99451.81;;;7.94;84.51
10064;BME280;5071;52.360;13.134;2024-02-21T23:25:39;99438.06;;;8.17;82.02
10064;BME280;5071;52.360;13.134;2024-02-21T23:30:42;99426.72;;;8.12;81.55
10064;BME280;5071;52.360;13.134;2024-02-21T23:35:44;99423.59;;;8.32;80.18
10064;BME280;5071;52.360;13.134;2024-02-21T23:40:46;99410.31;;;8.35;79.97
10064;BME280;5071;52.360;13.134;2024-02-21T23:45:49;99410.34;;;8.34;79.29
10064;BME280;5071;52.360;13.134;2024-02-21T23:50:51;99395.31;;;8.36;79.84
10064;BME280;5071;52.360;13.134;2024-02-21T23:55:54;99389.03;;;8.42;78.90
